Time;durP1;ratioP1;P1;durP2;ratioP2;P2;SDS_P1;SDS_P2;PMS_P1;PMS_P2;Temp;Humidity;BMP_temperature;BMP_pressure;BME280_temperature;BME280_humidity;BME280_pressure;Samples;Min_cycle;Max_cycle;Signal;HPM_P1;HPM_P2
2022/06/28 00:01:35;;;;;;;10.33;7.67;;;;;;;;;;5056849;28;20174;-66
2022/06/28 00:04:01;;;;;;;8.17;7.33;;;;;;;;;;5040245;28;20183;-67
2022/06/28 00:06:27;;;;;;;9.07;7.33;;;;;;;;;;5058166;28;20178;-66
2022/06/28 00:08:53;;;;;;;9.87;7.80;;;;;;;;;;5039089;28;20202;-67
2022/06/28 00:11:19;;;;;;;11.27;8.07;;;;;;;;;;5056719;28;20179;-67
2022/06/28 00:13:45;;;;;;;9.57;7.67;;;;;;;;;;5038740;28;20260;-67
2022/06/28 00:16:15;;;;;;;8.80;7.90;;;;;;;;;;5038996;28;20174;-68
2022/06/28 00:18:41;;;;;;;8.07;6.97;;;;;;;;;;5057276;28;20194;-67
2022/06/28 00:21:07;;;;;;;10.40;7.20;;;;;;;;;;5056760;28;20175;-67
2022/06/28 00:23:34;;;;;;;9.23;7.30;;;;;;;;;;5039169;28;20186;-66
2022/06/28 00:26:00;;;;;;;9.27;7.30;;;;;;;;;;5057808;28;20178;-68
2022/06/28 00:28:26;;;;;;;8.67;7.40;;;;;;;;;;5057845;28;20205;-68
2022/06/28 00:30:52;;;;;;;11.23;7.10;;;;;;;;;;5058411;28;20178;-68
2022/06/28 00:33:18;;;;;;;12.00;7.40;;;;;;;;;;5039842;28;20217;-65
2022/06/28 00:35:44;;;;;;;9.67;6.97;;;;;;;;;;5039464;28;20183;-68
2022/06/28 00:38:11;;;;;;;10.43;7.20;;;;;;;;;;5057619;28;20195;-68
2022/06/28 00:40:55;;;;;;;11.50;7.43;;;;;;;;;;5039781;28;20784;-68
2022/06/28 00:43:22;;;;;;;14.93;7.33;;;;;;;;;;5038902;28;20558;-68
2022/06/28 00:45:48;;;;;;;9.77;6.90;;;;;;;;;;5057163;28;20201;-68
2022/06/28 00:48:15;;;;;;;10.03;7.00;;;;;;;;;;5056635;28;20228;-68
2022/06/28 00:50:41;;;;;;;11.37;6.70;;;;;;;;;;5056681;28;20190;-68
2022/06/28 00:53:09;;;;;;;9.20;7.10;;;;;;;;;;5038965;28;20300;-67
2022/06/28 00:55:35;;;;;;;8.13;7.00;;;;;;;;;;5057089;28;20205;-67
2022/06/28 00:58:01;;;;;;;7.20;6.50;;;;;;;;;;5057145;28;20191;-66
2022/06/28 01:00:28;;;;;;;8.37;6.50;;;;;;;;;;5038358;28;20187;-67
2022/06/28 01:02:55;;;;;;;7.97;6.93;;;;;;;;;;5038668;28;20185;-66
2022/06/28 01:05:21;;;;;;;12.23;7.33;;;;;;;;;;5056687;28;20175;-66
2022/06/28 01:07:47;;;;;;;11.67;7.37;;;;;;;;;;5055983;28;20206;-66
2022/06/28 01:10:13;;;;;;;7.23;6.53;;;;;;;;;;5056156;28;20178;-66
2022/06/28 01:12:39;;;;;;;11.30;7.47;;;;;;;;;;5055328;28;20344;-66
2022/06/28 01:15:06;;;;;;;8.47;6.77;;;;;;;;;;5057186;28;20197;-66
2022/06/28 01:17:32;;;;;;;12.20;7.07;;;;;;;;;;5056590;28;20202;-66
2022/06/28 01:19:58;;;;;;;9.33;7.53;;;;;;;;;;5041101;28;20178;-67
2022/06/28 01:22:27;;;;;;;9.00;7.13;;;;;;;;;;5060360;28;20309;-67
2022/06/28 01:24:53;;;;;;;10.80;7.50;;;;;;;;;;5060762;28;20277;-67
2022/06/28 01:27:19;;;;;;;10.20;7.33;;;;;;;;;;5059614;28;20674;-67
2022/06/28 01:29:45;;;;;;;8.17;7.37;;;;;;;;;;5059117;28;20210;-67
2022/06/28 01:32:13;;;;;;;9.47;7.23;;;;;;;;;;5057442;28;20212;-67
2022/06/28 01:34:39;;;;;;;9.60;7.53;;;;;;;;;;5056715;28;20236;-67
2022/06/28 01:37:05;;;;;;;11.47;7.83;;;;;;;;;;5056085;28;20666;-67
2022/06/28 01:39:32;;;;;;;11.00;8.37;;;;;;;;;;5055530;28;20185;-67
2022/06/28 01:41:58;;;;;;;9.47;8.47;;;;;;;;;;5055909;28;20210;-67
2022/06/28 01:44:24;;;;;;;10.67;8.17;;;;;;;;;;5037584;28;20248;-67
2022/06/28 01:46:50;;;;;;;11.13;8.63;;;;;;;;;;5055324;28;20210;-67
2022/06/28 01:49:16;;;;;;;10.47;7.90;;;;;;;;;;5055264;28;20228;-67
2022/06/28 01:51:41;;;;;;;11.83;7.67;;;;;;;;;;5055204;28;20208;-67
2022/06/28 01:54:08;;;;;;;14.60;8.73;;;;;;;;;;5054913;28;20202;-67
2022/06/28 01:56:35;;;;;;;13.33;9.60;;;;;;;;;;5054707;28;20225;-67
2022/06/28 01:59:01;;;;;;;9.93;8.37;;;;;;;;;;5054808;28;20178;-67
2022/06/28 02:01:27;;;;;;;12.20;8.53;;;;;;;;;;5054843;28;20549;-67
2022/06/28 02:03:53;;;;;;;9.17;8.00;;;;;;;;;;5054688;28;20210;-67
2022/06/28 02:06:19;;;;;;;9.60;8.60;;;;;;;;;;5036773;28;20217;-67
2022/06/28 02:08:45;;;;;;;10.60;8.70;;;;;;;;;;5054399;28;20194;-67
2022/06/28 02:11:11;;;;;;;10.77;8.63;;;;;;;;;;5054449;28;20210;-67
2022/06/28 02:13:37;;;;;;;11.70;7.97;;;;;;;;;;5054630;28;20209;-67
2022/06/28 02:16:03;;;;;;;9.97;8.53;;;;;;;;;;5055382;28;20287;-67
2022/06/28 02:18:31;;;;;;;11.20;9.17;;;;;;;;;;5054596;28;20202;-68
2022/06/28 02:20:57;;;;;;;9.73;8.60;;;;;;;;;;5054521;28;20178;-67
2022/06/28 02:23:23;;;;;;;12.03;9.20;;;;;;;;;;5054770;28;20519;-67
2022/06/28 02:25:49;;;;;;;12.87;9.03;;;;;;;;;;5055090;28;20183;-67
2022/06/28 02:28:15;;;;;;;12.23;10.03;;;;;;;;;;5054281;28;20209;-67
2022/06/28 02:30:41;;;;;;;13.00;9.13;;;;;;;;;;5054766;28;20178;-67
2022/06/28 02:33:07;;;;;;;12.57;10.63;;;;;;;;;;5054165;28;20617;-67
2022/06/28 02:41:02;;;;;;;16.10;11.27;;;;;;;;;;5054436;28;20161;-67
2022/06/28 02:43:28;;;;;;;15.67;13.00;;;;;;;;;;5054111;28;20174;-67
2022/06/28 02:45:54;;;;;;;15.57;11.50;;;;;;;;;;5054304;28;20662;-67
2022/06/28 02:48:20;;;;;;;19.33;12.30;;;;;;;;;;5054015;28;20221;-67
2022/06/28 02:50:46;;;;;;;18.53;12.03;;;;;;;;;;5054039;28;20181;-67
2022/06/28 02:53:12;;;;;;;20.00;11.23;;;;;;;;;;5054219;28;20217;-67
2022/06/28 02:55:38;;;;;;;16.53;12.07;;;;;;;;;;5036628;28;20202;-66
2022/06/28 02:58:04;;;;;;;14.07;11.23;;;;;;;;;;5054280;28;20220;-67
2022/06/28 03:00:31;;;;;;;15.63;11.27;;;;;;;;;;5036307;28;20635;-67
2022/06/28 03:02:57;;;;;;;13.20;10.07;;;;;;;;;;5054902;28;20653;-67
2022/06/28 03:05:23;;;;;;;12.77;10.93;;;;;;;;;;5054662;28;20182;-67
2022/06/28 03:07:50;;;;;;;16.43;10.30;;;;;;;;;;5053869;28;20199;-67
2022/06/28 03:10:18;;;;;;;11.53;9.77;;;;;;;;;;5036794;28;20182;-67
2022/06/28 03:12:44;;;;;;;12.23;9.70;;;;;;;;;;5054963;28;20206;-67
2022/06/28 03:15:11;;;;;;;13.73;9.40;;;;;;;;;;5035893;28;20182;-67
2022/06/28 03:17:37;;;;;;;12.73;8.90;;;;;;;;;;5053791;28;20229;-67
2022/06/28 03:20:03;;;;;;;22.60;9.50;;;;;;;;;;5054382;28;20204;-68
2022/06/28 03:22:29;;;;;;;14.40;9.23;;;;;;;;;;5053491;28;20188;-68
2022/06/28 03:24:56;;;;;;;12.10;9.80;;;;;;;;;;5054598;28;20186;-68
2022/06/28 03:27:22;;;;;;;15.47;8.93;;;;;;;;;;5036026;28;20206;-68
2022/06/28 03:29:51;;;;;;;13.73;9.90;;;;;;;;;;5035969;28;20319;-65
2022/06/28 03:32:16;;;;;;;16.43;10.23;;;;;;;;;;5053662;28;20635;-66
2022/06/28 03:34:42;;;;;;;13.67;9.80;;;;;;;;;;5053715;28;20181;-66
2022/06/28 03:37:08;;;;;;;16.63;10.50;;;;;;;;;;5039074;28;20206;-67
2022/06/28 03:39:34;;;;;;;14.57;10.77;;;;;;;;;;5057817;28;20185;-66
2022/06/28 03:42:00;;;;;;;13.97;10.93;;;;;;;;;;5040326;28;20177;-69
2022/06/28 03:44:26;;;;;;;12.63;9.93;;;;;;;;;;5057313;28;20188;-66
2022/06/28 03:46:52;;;;;;;14.40;11.37;;;;;;;;;;5057181;28;20202;-67
2022/06/28 03:49:18;;;;;;;15.17;10.80;;;;;;;;;;5057176;28;20162;-66
2022/06/28 03:51:45;;;;;;;11.77;9.67;;;;;;;;;;5057691;28;20190;-66
2022/06/28 03:54:11;;;;;;;13.57;10.20;;;;;;;;;;5057001;28;20205;-66
2022/06/28 03:56:37;;;;;;;15.00;10.77;;;;;;;;;;5057333;28;20178;-67
2022/06/28 03:59:03;;;;;;;12.97;10.73;;;;;;;;;;5038994;28;20194;-66
2022/06/28 04:01:29;;;;;;;15.33;10.70;;;;;;;;;;5039295;28;20231;-67
2022/06/28 04:03:56;;;;;;;16.30;10.40;;;;;;;;;;5057406;28;20182;-66
2022/06/28 04:06:22;;;;;;;15.03;10.73;;;;;;;;;;5057212;28;20220;-66
2022/06/28 04:08:48;;;;;;;11.07;9.53;;;;;;;;;;5056733;28;20732;-66
2022/06/28 04:11:13;;;;;;;12.77;10.43;;;;;;;;;;5057010;28;20182;-67
2022/06/28 04:13:40;;;;;;;14.97;10.23;;;;;;;;;;5056935;28;20244;-67
2022/06/28 04:16:06;;;;;;;11.97;9.07;;;;;;;;;;5039190;28;20178;-67
2022/06/28 04:18:32;;;;;;;13.40;9.50;;;;;;;;;;5056869;28;20195;-67
2022/06/28 04:20:58;;;;;;;14.03;8.93;;;;;;;;;;5057380;28;20170;-66
2022/06/28 04:23:24;;;;;;;14.83;9.17;;;;;;;;;;5038645;28;20182;-67
2022/06/28 04:25:50;;;;;;;11.17;8.83;;;;;;;;;;5056775;28;20526;-67
2022/06/28 04:28:16;;;;;;;10.10;8.93;;;;;;;;;;5056528;28;20547;-65
2022/06/28 04:30:42;;;;;;;11.53;8.53;;;;;;;;;;5057237;28;20232;-67
2022/06/28 04:33:08;;;;;;;10.17;8.50;;;;;;;;;;5056656;28;20239;-68
2022/06/28 04:35:34;;;;;;;12.27;9.10;;;;;;;;;;5056673;28;20178;-67
2022/06/28 04:38:01;;;;;;;12.07;8.87;;;;;;;;;;5056815;28;20259;-66
2022/06/28 04:40:27;;;;;;;12.50;8.63;;;;;;;;;;5056518;28;20701;-67
2022/06/28 04:42:53;;;;;;;12.10;8.30;;;;;;;;;;5056266;28;20273;-68
2022/06/28 04:45:19;;;;;;;15.37;9.10;;;;;;;;;;5056314;28;20217;-67
2022/06/28 04:47:45;;;;;;;9.77;8.37;;;;;;;;;;5054880;28;20218;-73
2022/06/28 04:50:11;;;;;;;10.13;8.50;;;;;;;;;;5038300;28;20189;-67
2022/06/28 04:52:37;;;;;;;9.60;8.07;;;;;;;;;;5056100;28;20198;-68
2022/06/28 04:55:03;;;;;;;16.33;8.37;;;;;;;;;;5038014;28;20235;-68
2022/06/28 04:57:29;;;;;;;11.13;6.57;;;;;;;;;;5072593;22;20233;-66
2022/06/28 04:59:55;;;;;;;8.87;5.83;;;;;;;;;;5037720;28;20515;-67
2022/06/28 05:02:21;;;;;;;5.73;4.77;;;;;;;;;;5055522;28;20701;-67
2022/06/28 05:04:47;;;;;;;5.60;5.03;;;;;;;;;;5055865;28;20543;-67
2022/06/28 05:07:13;;;;;;;6.50;4.77;;;;;;;;;;5055450;28;20327;-67
2022/06/28 05:09:40;;;;;;;5.17;3.97;;;;;;;;;;5055582;28;20183;-67
2022/06/28 05:12:06;;;;;;;7.37;3.60;;;;;;;;;;5037456;28;20187;-67
2022/06/28 05:14:32;;;;;;;5.00;3.17;;;;;;;;;;5055426;28;20195;-67
2022/06/28 05:16:59;;;;;;;6.13;3.63;;;;;;;;;;5037352;28;20576;-67
2022/06/28 05:19:25;;;;;;;4.37;3.10;;;;;;;;;;5055262;28;20171;-67
2022/06/28 05:21:51;;;;;;;10.10;3.47;;;;;;;;;;5037174;28;20178;-66
2022/06/28 05:24:17;;;;;;;5.77;3.20;;;;;;;;;;5037403;28;20302;-67
2022/06/28 05:26:43;;;;;;;5.20;3.57;;;;;;;;;;5054868;28;20182;-66
2022/06/28 05:29:09;;;;;;;4.70;3.27;;;;;;;;;;5037053;28;20630;-66
2022/06/28 05:31:35;;;;;;;7.37;3.33;;;;;;;;;;5054952;28;20178;-66
2022/06/28 05:34:02;;;;;;;5.90;3.20;;;;;;;;;;5037033;28;20210;-66
2022/06/28 05:36:28;;;;;;;8.00;3.60;;;;;;;;;;5036990;28;20186;-66
2022/06/28 05:38:54;;;;;;;3.77;2.93;;;;;;;;;;5036890;28;20310;-67
2022/06/28 05:41:20;;;;;;;5.10;2.70;;;;;;;;;;5037070;28;20197;-67
2022/06/28 05:43:46;;;;;;;7.97;3.70;;;;;;;;;;5036904;28;20174;-67
2022/06/28 05:46:11;;;;;;;5.73;3.47;;;;;;;;;;5037115;28;20179;-67
2022/06/28 05:48:37;;;;;;;4.80;2.87;;;;;;;;;;5054696;28;20199;-66
2022/06/28 05:51:04;;;;;;;4.67;3.23;;;;;;;;;;5054573;28;20182;-67
2022/06/28 05:53:30;;;;;;;8.17;3.57;;;;;;;;;;5054741;28;20230;-67
2022/06/28 05:55:56;;;;;;;6.53;3.47;;;;;;;;;;5054480;28;20170;-67
2022/06/28 05:58:22;;;;;;;5.73;3.03;;;;;;;;;;5036070;28;20728;-67
2022/06/28 06:00:49;;;;;;;6.17;2.60;;;;;;;;;;5054243;28;20185;-67
2022/06/28 06:03:15;;;;;;;6.13;2.97;;;;;;;;;;5036255;28;20186;-67
2022/06/28 06:05:41;;;;;;;4.43;3.27;;;;;;;;;;5036272;28;20186;-67
2022/06/28 06:08:07;;;;;;;5.57;3.03;;;;;;;;;;5054103;28;20230;-68
2022/06/28 06:10:33;;;;;;;5.30;3.03;;;;;;;;;;5054401;28;20175;-67
2022/06/28 06:13:01;;;;;;;7.07;3.03;;;;;;;;;;5054192;28;20209;-68
2022/06/28 06:15:27;;;;;;;8.93;4.43;;;;;;;;;;5036256;28;20182;-64
2022/06/28 06:17:53;;;;;;;7.53;3.80;;;;;;;;;;5036093;28;20205;-68
2022/06/28 06:20:19;;;;;;;6.63;3.80;;;;;;;;;;5053971;28;20174;-67
2022/06/28 06:22:47;;;;;;;5.00;3.43;;;;;;;;;;5054179;28;20186;-68
2022/06/28 06:25:13;;;;;;;4.37;3.17;;;;;;;;;;5036224;28;20182;-68
2022/06/28 06:27:40;;;;;;;6.23;3.67;;;;;;;;;;5035960;28;20199;-68
2022/06/28 06:30:06;;;;;;;4.07;3.40;;;;;;;;;;5054081;28;20186;-68
2022/06/28 06:32:33;;;;;;;4.57;3.70;;;;;;;;;;5053985;28;20178;-67
2022/06/28 06:34:59;;;;;;;7.80;3.90;;;;;;;;;;5035780;28;20185;-66
2022/06/28 06:37:25;;;;;;;6.87;3.70;;;;;;;;;;5053745;28;20194;-68
2022/06/28 06:39:51;;;;;;;8.30;4.00;;;;;;;;;;5035881;28;20217;-67
2022/06/28 06:42:17;;;;;;;4.17;3.30;;;;;;;;;;5036171;28;20182;-66
2022/06/28 06:44:43;;;;;;;6.40;3.40;;;;;;;;;;5053894;28;20289;-67
2022/06/28 06:47:09;;;;;;;7.27;3.53;;;;;;;;;;5035900;28;20230;-67
2022/06/28 06:49:35;;;;;;;9.03;3.37;;;;;;;;;;5053797;28;20688;-67
2022/06/28 06:52:01;;;;;;;5.47;3.27;;;;;;;;;;5035810;28;20265;-67
2022/06/28 06:54:27;;;;;;;5.27;3.37;;;;;;;;;;5053994;28;20280;-67
2022/06/28 06:56:53;;;;;;;6.83;3.50;;;;;;;;;;5053808;28;20646;-67
2022/06/28 06:59:19;;;;;;;4.43;3.23;;;;;;;;;;5035690;28;20170;-67
2022/06/28 07:01:45;;;;;;;13.70;3.37;;;;;;;;;;5035785;28;20210;-67
2022/06/28 07:04:12;;;;;;;4.50;3.13;;;;;;;;;;5036456;28;20178;-67
2022/06/28 07:06:38;;;;;;;4.07;3.10;;;;;;;;;;5035837;28;20277;-64
2022/06/28 07:09:04;;;;;;;6.97;3.03;;;;;;;;;;5054415;28;20178;-67
2022/06/28 07:11:30;;;;;;;10.67;3.37;;;;;;;;;;5053186;28;20715;-66
2022/06/28 07:13:56;;;;;;;3.47;2.40;;;;;;;;;;5053890;28;20202;-67
2022/06/28 07:16:22;;;;;;;4.60;3.20;;;;;;;;;;5036361;28;20281;-67
2022/06/28 07:18:48;;;;;;;5.27;2.80;;;;;;;;;;5036156;28;20230;-66
2022/06/28 07:21:14;;;;;;;5.43;3.13;;;;;;;;;;5053653;28;20178;-67
2022/06/28 07:23:41;;;;;;;4.23;2.90;;;;;;;;;;5053193;28;20185;-67
2022/06/28 07:26:08;;;;;;;4.97;3.50;;;;;;;;;;5035429;28;20193;-67
2022/06/28 07:28:34;;;;;;;2.87;2.67;;;;;;;;;;5035223;28;20202;-67
2022/06/28 07:31:00;;;;;;;4.07;3.03;;;;;;;;;;5035432;28;20617;-67
2022/06/28 07:33:26;;;;;;;5.37;2.90;;;;;;;;;;5053072;28;20197;-67
2022/06/28 07:35:52;;;;;;;6.13;2.60;;;;;;;;;;5053017;28;20175;-65
2022/06/28 07:38:18;;;;;;;4.70;2.97;;;;;;;;;;5035082;28;20194;-66
2022/06/28 07:40:44;;;;;;;9.30;2.80;;;;;;;;;;5053249;28;20174;-67
2022/06/28 07:43:10;;;;;;;4.17;2.63;;;;;;;;;;5035037;28;20197;-67
2022/06/28 07:45:36;;;;;;;4.87;2.60;;;;;;;;;;5035122;28;20209;-67
2022/06/28 07:48:03;;;;;;;3.50;2.00;;;;;;;;;;5052685;28;20190;-67
2022/06/28 07:53:14;;;;;;;4.90;2.33;;;;;;;;;;5052912;28;20205;-67
2022/06/28 07:55:40;;;;;;;2.93;2.30;;;;;;;;;;5052746;28;20178;-67
2022/06/28 07:58:06;;;;;;;6.70;3.23;;;;;;;;;;5052877;28;20210;-68
2022/06/28 08:00:32;;;;;;;4.30;2.93;;;;;;;;;;5052913;28;20229;-67
2022/06/28 08:02:58;;;;;;;4.63;2.70;;;;;;;;;;5034760;28;20187;-67
2022/06/28 08:05:25;;;;;;;8.03;3.53;;;;;;;;;;5053307;28;20623;-67
2022/06/28 08:07:51;;;;;;;5.20;3.50;;;;;;;;;;5034760;28;20207;-67
2022/06/28 08:10:16;;;;;;;7.67;3.30;;;;;;;;;;5052829;28;20248;-67
2022/06/28 08:12:43;;;;;;;5.53;3.00;;;;;;;;;;5035106;28;20230;-66
2022/06/28 08:15:10;;;;;;;6.97;3.13;;;;;;;;;;5053109;28;20182;-67
2022/06/28 08:17:36;;;;;;;3.60;2.83;;;;;;;;;;5053011;28;20195;-67
2022/06/28 08:20:02;;;;;;;3.73;3.00;;;;;;;;;;5052798;28;20178;-67
2022/06/28 08:22:28;;;;;;;7.77;3.00;;;;;;;;;;5037067;28;20186;-67
2022/06/28 08:24:54;;;;;;;4.20;2.93;;;;;;;;;;5056203;28;20185;-67
2022/06/28 08:27:20;;;;;;;5.63;3.53;;;;;;;;;;5038183;28;20202;-67
2022/06/28 08:29:47;;;;;;;5.97;3.23;;;;;;;;;;5038366;28;20185;-67
2022/06/28 08:32:13;;;;;;;2.80;2.60;;;;;;;;;;5038404;28;20545;-67
2022/06/28 08:34:39;;;;;;;9.93;3.27;;;;;;;;;;5038326;28;20256;-67
2022/06/28 08:37:05;;;;;;;5.03;3.13;;;;;;;;;;5038023;28;20204;-67
2022/06/28 08:39:32;;;;;;;7.17;3.37;;;;;;;;;;5056623;28;20623;-68
2022/06/28 08:42:02;;;;;;;3.73;2.43;;;;;;;;;;5056281;28;20174;-68
2022/06/28 08:44:30;;;;;;;4.20;2.90;;;;;;;;;;5038148;28;20596;-68
2022/06/28 08:46:56;;;;;;;6.63;3.63;;;;;;;;;;5038186;28;20186;-68
2022/06/28 08:49:28;;;;;;;3.63;2.77;;;;;;;;;;5055850;28;20599;-67
2022/06/28 08:51:55;;;;;;;8.20;3.00;;;;;;;;;;5055888;28;20192;-68
2022/06/28 08:54:22;;;;;;;3.17;2.00;;;;;;;;;;5037843;28;20661;-68
2022/06/28 08:56:49;;;;;;;6.37;2.30;;;;;;;;;;5055780;28;20202;-68
2022/06/28 08:59:16;;;;;;;4.33;2.50;;;;;;;;;;5056008;28;20185;-68
2022/06/28 09:01:42;;;;;;;7.60;2.40;;;;;;;;;;5037826;28;20183;-68
2022/06/28 09:04:10;;;;;;;5.20;2.30;;;;;;;;;;5055685;28;20239;-68
2022/06/28 09:06:37;;;;;;;5.13;2.57;;;;;;;;;;5055637;28;20220;-68
2022/06/28 09:09:03;;;;;;;5.73;3.00;;;;;;;;;;5055807;28;20202;-68
2022/06/28 09:11:39;;;;;;;5.63;2.40;;;;;;;;;;5055735;28;20546;-68
2022/06/28 09:14:20;;;;;;;4.23;2.40;;;;;;;;;;5055763;28;20194;-68
2022/06/28 09:16:46;;;;;;;3.27;2.27;;;;;;;;;;5037600;28;20167;-67
2022/06/28 09:19:12;;;;;;;4.80;2.30;;;;;;;;;;5055648;28;20174;-68
2022/06/28 09:21:42;;;;;;;5.07;2.53;;;;;;;;;;5055325;28;20203;-68
2022/06/28 09:24:08;;;;;;;3.87;1.80;;;;;;;;;;5037564;28;20638;-68
2022/06/28 09:26:34;;;;;;;4.27;1.97;;;;;;;;;;5055226;28;20183;-67
2022/06/28 09:29:00;;;;;;;8.10;1.80;;;;;;;;;;5055050;28;20198;-67
2022/06/28 09:31:28;;;;;;;3.47;1.80;;;;;;;;;;5037350;28;20367;-67
2022/06/28 09:34:10;;;;;;;2.00;1.60;;;;;;;;;;5054327;28;20198;-68
2022/06/28 09:36:41;;;;;;;3.17;1.90;;;;;;;;;;5037270;28;20336;-67
2022/06/28 09:39:11;;;;;;;4.23;2.10;;;;;;;;;;5054981;28;20548;-67
2022/06/28 09:41:37;;;;;;;2.20;2.00;;;;;;;;;;5036894;28;20531;-67
2022/06/28 09:44:03;;;;;;;3.30;1.83;;;;;;;;;;5054634;28;20594;-67
2022/06/28 09:46:31;;;;;;;5.50;2.03;;;;;;;;;;5054762;28;20175;-67
2022/06/28 09:49:04;;;;;;;4.33;2.00;;;;;;;;;;5054503;28;20198;-67
2022/06/28 09:51:31;;;;;;;3.27;1.70;;;;;;;;;;5054411;28;20195;-67
2022/06/28 09:54:03;;;;;;;3.47;1.50;;;;;;;;;;5054565;28;20729;-67
2022/06/28 09:56:31;;;;;;;3.13;1.53;;;;;;;;;;5037800;28;20525;-67
2022/06/28 09:58:57;;;;;;;2.17;1.50;;;;;;;;;;5054406;28;20210;-67
2022/06/28 10:01:23;;;;;;;3.63;1.70;;;;;;;;;;5054756;28;20261;-68
2022/06/28 10:03:50;;;;;;;2.27;1.30;;;;;;;;;;5036507;28;20601;-67
2022/06/28 10:06:16;;;;;;;1.83;1.70;;;;;;;;;;5054779;28;20178;-68
2022/06/28 10:08:42;;;;;;;5.23;1.60;;;;;;;;;;5054333;28;20277;-68
2022/06/28 10:11:10;;;;;;;3.27;1.40;;;;;;;;;;5054207;28;20182;-67
2022/06/28 10:16:27;;;;;;;3.03;1.53;;;;;;;;;;5054248;28;20205;-68
2022/06/28 10:18:54;;;;;;;2.87;1.80;;;;;;;;;;5054183;28;20222;-68
2022/06/28 10:21:40;;;;;;;3.20;1.80;;;;;;;;;;5054124;28;20178;-67
2022/06/28 10:24:06;;;;;;;2.37;1.43;;;;;;;;;;5037146;28;20198;-68
2022/06/28 10:26:32;;;;;;;2.97;1.50;;;;;;;;;;5036207;28;20636;-68
2022/06/28 10:29:05;;;;;;;5.50;4.33;;;;;;;;;;5053769;28;20207;-68
2022/06/28 10:31:32;;;;;;;4.23;1.50;;;;;;;;;;5036043;28;20190;-68
2022/06/28 10:34:02;;;;;;;3.37;1.67;;;;;;;;;;5035884;28;20229;-68
2022/06/28 10:36:41;;;;;;;1.47;1.37;;;;;;;;;;5053791;28;20257;-68
2022/06/28 10:39:07;;;;;;;3.87;1.93;;;;;;;;;;5053665;28;20167;-68
2022/06/28 10:41:35;;;;;;;1.57;1.37;;;;;;;;;;5053623;28;20185;-68
2022/06/28 10:44:05;;;;;;;4.03;1.70;;;;;;;;;;5053702;28;20198;-68
2022/06/28 10:46:31;;;;;;;1.93;1.50;;;;;;;;;;5053915;28;20186;-68
2022/06/28 10:48:57;;;;;;;3.73;1.77;;;;;;;;;;5053726;28;20567;-68
2022/06/28 10:51:23;;;;;;;3.90;1.30;;;;;;;;;;5053747;28;20183;-68
2022/06/28 10:54:08;;;;;;;2.83;1.30;;;;;;;;;;5054021;28;20524;-68
2022/06/28 10:56:42;;;;;;;3.80;1.63;;;;;;;;;;5053782;28;20650;-70
2022/06/28 10:59:11;;;;;;;2.90;1.60;;;;;;;;;;5053411;28;20178;-68
2022/06/28 11:01:40;;;;;;;4.97;1.77;;;;;;;;;;5053436;28;20198;-68
2022/06/28 11:04:26;;;;;;;1.93;1.40;;;;;;;;;;5035475;28;20182;-68
2022/06/28 11:07:22;;;;;;;3.83;1.97;;;;;;;;;;5035149;28;20267;-68
2022/06/28 11:10:11;;;;;;;1.73;1.33;;;;;;;;;;5014903;28;20657;-68
2022/06/28 11:12:38;;;;;;;1.83;1.53;;;;;;;;;;5023031;28;20205;-68
2022/06/28 11:15:11;;;;;;;6.03;1.70;;;;;;;;;;5053612;28;20305;-68
2022/06/28 11:17:41;;;;;;;4.03;1.50;;;;;;;;;;5035352;28;20213;-68
2022/06/28 11:20:09;;;;;;;2.33;1.37;;;;;;;;;;5053798;28;20661;-68
2022/06/28 11:22:40;;;;;;;2.73;1.40;;;;;;;;;;5053887;28;20642;-68
2022/06/28 11:25:06;;;;;;;1.93;1.37;;;;;;;;;;5035267;28;20182;-69
2022/06/28 11:27:33;;;;;;;2.07;1.30;;;;;;;;;;5076971;22;20764;-67
2022/06/28 11:30:02;;;;;;;3.03;1.30;;;;;;;;;;5053231;28;20249;-68
2022/06/28 11:32:32;;;;;;;3.23;2.07;;;;;;;;;;5053350;28;20321;-68
2022/06/28 11:35:10;;;;;;;2.40;1.40;;;;;;;;;;5053510;28;20515;-69
2022/06/28 11:38:06;;;;;;;3.17;1.70;;;;;;;;;;5035467;28;20230;-68
2022/06/28 11:40:41;;;;;;;2.50;1.50;;;;;;;;;;5032719;28;20245;-68
2022/06/28 11:43:08;;;;;;;2.20;1.40;;;;;;;;;;5053349;28;20204;-68
2022/06/28 11:45:36;;;;;;;1.67;1.20;;;;;;;;;;5053314;28;20178;-68
2022/06/28 11:48:03;;;;;;;3.80;1.70;;;;;;;;;;5053342;28;20229;-68
2022/06/28 11:50:38;;;;;;;1.63;1.20;;;;;;;;;;5053064;28;20209;-68
2022/06/28 11:53:04;;;;;;;2.03;1.40;;;;;;;;;;5035118;28;20583;-67
2022/06/28 11:55:38;;;;;;;3.40;1.30;;;;;;;;;;5053491;28;20179;-68
2022/06/28 11:58:23;;;;;;;2.00;1.33;;;;;;;;;;5056637;28;20674;-68
2022/06/28 12:01:04;;;;;;;1.63;1.30;;;;;;;;;;5057211;28;20178;-67
2022/06/28 12:03:30;;;;;;;2.10;1.37;;;;;;;;;;5057546;28;20262;-68
2022/06/28 12:06:00;;;;;;;3.07;1.70;;;;;;;;;;5057145;28;20178;-68
2022/06/28 12:08:44;;;;;;;2.87;1.53;;;;;;;;;;5057221;28;20195;-68
2022/06/28 12:11:24;;;;;;;1.60;1.40;;;;;;;;;;5057571;28;20654;-68
2022/06/28 12:13:54;;;;;;;2.73;1.83;;;;;;;;;;5039196;28;20216;-68
2022/06/28 12:16:20;;;;;;;4.10;1.93;;;;;;;;;;5038930;28;20217;-69
2022/06/28 12:18:56;;;;;;;2.90;2.17;;;;;;;;;;5058106;28;20174;-68
2022/06/28 12:21:22;;;;;;;3.83;1.77;;;;;;;;;;5056831;28;20602;-69
2022/06/28 12:23:49;;;;;;;4.30;1.97;;;;;;;;;;5056785;28;20253;-69
2022/06/28 12:26:15;;;;;;;3.50;1.87;;;;;;;;;;5056826;28;20183;-69
2022/06/28 12:28:41;;;;;;;4.10;2.40;;;;;;;;;;5056798;28;20214;-67
2022/06/28 12:31:07;;;;;;;4.00;2.20;;;;;;;;;;5056472;28;20178;-69
2022/06/28 12:33:33;;;;;;;3.27;1.87;;;;;;;;;;5038454;28;20209;-67
2022/06/28 12:35:59;;;;;;;2.07;1.70;;;;;;;;;;5056672;28;20174;-66
2022/06/28 12:38:25;;;;;;;3.07;1.60;;;;;;;;;;5038536;28;20277;-67
2022/06/28 12:40:51;;;;;;;3.40;1.70;;;;;;;;;;5056502;28;20175;-67
2022/06/28 12:43:17;;;;;;;5.10;1.83;;;;;;;;;;5038294;28;20657;-70
2022/06/28 12:45:43;;;;;;;2.43;1.60;;;;;;;;;;5038299;28;20194;-68
2022/06/28 12:48:09;;;;;;;2.73;1.70;;;;;;;;;;5038237;28;20301;-68
2022/06/28 12:50:35;;;;;;;3.10;1.47;;;;;;;;;;5038003;28;20182;-68
2022/06/28 12:53:01;;;;;;;4.13;2.00;;;;;;;;;;5056175;28;20670;-68
2022/06/28 12:55:28;;;;;;;2.77;2.00;;;;;;;;;;5056018;28;20179;-68
2022/06/28 12:57:54;;;;;;;2.10;1.70;;;;;;;;;;5055982;28;20213;-68
2022/06/28 13:00:20;;;;;;;2.50;2.10;;;;;;;;;;5056123;28;20670;-68
2022/06/28 13:02:46;;;;;;;1.37;1.20;;;;;;;;;;5056281;28;20556;-68
2022/06/28 13:05:12;;;;;;;1.70;1.60;;;;;;;;;;5038055;28;20179;-67
2022/06/28 13:07:41;;;;;;;3.57;1.90;;;;;;;;;;5037438;28;20201;-68
2022/06/28 13:10:11;;;;;;;4.23;1.60;;;;;;;;;;5056083;28;20175;-65
2022/06/28 13:12:37;;;;;;;4.77;1.93;;;;;;;;;;5037652;28;20213;-66
2022/06/28 13:15:03;;;;;;;2.93;1.83;;;;;;;;;;5038140;28;20200;-66
2022/06/28 13:17:29;;;;;;;5.63;2.03;;;;;;;;;;5037695;28;20236;-67
2022/06/28 13:19:55;;;;;;;3.30;2.03;;;;;;;;;;5037832;28;20232;-66
2022/06/28 13:22:21;;;;;;;5.63;2.30;;;;;;;;;;5037615;28;20190;-66
2022/06/28 13:24:47;;;;;;;2.63;1.73;;;;;;;;;;5037663;28;20195;-66
2022/06/28 13:27:13;;;;;;;8.83;2.30;;;;;;;;;;5037451;28;20222;-66
2022/06/28 13:29:39;;;;;;;3.77;2.17;;;;;;;;;;5038154;28;20634;-66
2022/06/28 13:32:05;;;;;;;4.10;2.27;;;;;;;;;;5055718;28;20182;-67
2022/06/28 13:34:31;;;;;;;1.63;1.47;;;;;;;;;;5055702;28;20595;-67
2022/06/28 13:37:00;;;;;;;2.20;1.60;;;;;;;;;;5055504;28;20658;-66
2022/06/28 13:39:26;;;;;;;2.27;1.97;;;;;;;;;;5037374;28;20206;-66
2022/06/28 13:41:52;;;;;;;3.28;2.10;;;;;;;;;;5055251;28;20178;-67
2022/06/28 13:44:18;;;;;;;4.05;2.40;;;;;;;;;;5055141;28;20632;-66
2022/06/28 13:46:44;;;;;;;4.03;2.25;;;;;;;;;;5055161;28;20194;-67
2022/06/28 13:49:11;;;;;;;5.32;2.40;;;;;;;;;;5054857;28;20549;-66
2022/06/28 13:51:37;;;;;;;3.67;2.38;;;;;;;;;;5055102;28;20182;-67
2022/06/28 13:54:03;;;;;;;3.40;2.30;;;;;;;;;;5054836;28;20582;-67
2022/06/28 13:56:29;;;;;;;5.32;2.25;;;;;;;;;;5054640;28;20181;-66
2022/06/28 13:58:55;;;;;;;2.97;2.23;;;;;;;;;;5054980;28;20175;-68
2022/06/28 14:01:21;;;;;;;5.80;2.23;;;;;;;;;;5036869;28;20277;-66
2022/06/28 14:03:47;;;;;;;3.97;2.87;;;;;;;;;;5054621;28;20210;-66
2022/06/28 14:06:13;;;;;;;4.60;2.10;;;;;;;;;;5055166;28;20202;-67
2022/06/28 14:08:39;;;;;;;7.57;2.27;;;;;;;;;;5036689;28;20668;-66
2022/06/28 14:11:05;;;;;;;3.40;2.10;;;;;;;;;;5054424;28;20245;-67
2022/06/28 14:13:32;;;;;;;3.27;2.50;;;;;;;;;;5054484;28;20615;-64
2022/06/28 14:15:58;;;;;;;3.70;2.00;;;;;;;;;;5037301;28;20182;-67
2022/06/28 14:18:24;;;;;;;4.87;2.00;;;;;;;;;;5035386;28;20389;-66
2022/06/28 14:20:50;;;;;;;4.33;2.17;;;;;;;;;;5054199;28;20213;-66
2022/06/28 14:23:16;;;;;;;3.60;2.23;;;;;;;;;;5054756;28;20175;-67
2022/06/28 14:25:42;;;;;;;2.33;1.93;;;;;;;;;;5054520;28;20187;-65
2022/06/28 14:28:09;;;;;;;2.53;2.33;;;;;;;;;;5036443;28;20275;-66
2022/06/28 14:30:35;;;;;;;2.77;1.90;;;;;;;;;;5054570;28;20171;-67
2022/06/28 14:33:01;;;;;;;4.43;2.73;;;;;;;;;;5053974;28;20206;-66
2022/06/28 14:35:27;;;;;;;4.00;1.90;;;;;;;;;;5053931;28;20170;-66
2022/06/28 14:37:53;;;;;;;;;;;;;;;;;;5054496;28;20155;-66
2022/06/28 14:40:19;;;;;;;;;;;;;;;;;;5054807;28;20340;-66
2022/06/28 14:42:45;;;;;;;;;;;;;;;;;;5054631;28;19905;-66
2022/06/28 14:45:11;;;;;;;;;;;;;;;;;;5036451;28;19986;-66
2022/06/28 14:47:38;;;;;;;4.47;2.20;;;;;;;;;;5053960;28;20187;-66
2022/06/28 14:50:05;;;;;;;3.07;2.10;;;;;;;;;;5053994;28;20193;-66
2022/06/28 14:52:31;;;;;;;3.13;2.47;;;;;;;;;;5053717;28;20191;-66